Flight Track Log - Related Links

Times and Time Zones

All times are in EDT time to prevent confusion due to time zone crossing. See the EJA396 flight status page for this flight to view local times or setup timezone preferences in your user account.

Time Position Orientation Groundspeed Altitude Reporting Facility
EDT Latitude Longitude Course Direction KTS MPH feet Rate Location/Type
Thu 07:41:29 AM 26.6228 -80.2053 343° North 371 427 10,000  Level Miami Center
Thu 07:42:29 AM 26.6514 -80.3131 287° West 343 395 12,900 3,100 Climbing Miami Center
Thu 07:43:29 AM 26.7258 -80.3525 335° Northwest 308 354 16,200 2,800 Climbing Miami Center
Thu 07:44:29 AM 26.8186 -80.3947 338° Northwest 315 362 18,500 2,281 Climbing Miami Center
Thu 07:45:30 AM 26.9139 -80.4325 341° North 331 381 20,800 2,300 Climbing Miami Center
Thu 07:46:00 AM 26.8963 -80.5099 343° North  Level FlightAware Approximate
Thu 07:46:29 AM 27.0111 -80.4658 343° North 353 406 23,100  Level Miami Center
Thu 07:47:29 AM 27.1125 -80.5017 343° North 360 414 24,900 1,800 Climbing Miami Center
Thu 07:48:29 AM 27.2139 -80.5397 342° North 374 430 26,700 1,785 Climbing Miami Center
Thu 07:49:30 AM 27.3194 -80.5806 341° North 385 443 28,500 1,785 Climbing Miami Center
Thu 07:50:30 AM 27.4225 -80.6236 340° North 395 455 30,300 1,714 Climbing Miami Center
Thu 07:51:29 AM 27.5322 -80.6625 343° North 400 460 31,900 1,462 Climbing Miami Center
Thu 07:52:29 AM 27.6397 -80.7036 341° North 405 466 33,200 1,240 Climbing Miami Center
Thu 07:53:30 AM 27.7514 -80.7472 341° North 405 466 34,400 1,200 Climbing Miami Center
Thu 07:54:29 AM 27.8692 -80.7886 343° North 415 478 35,600 1,210 Climbing Miami Center
Thu 07:55:29 AM 27.9786 -80.8303 341° North 422 486 36,800 1,141 Climbing Miami Center
Thu 07:57:12 AM 28.1553 -80.8986 341° North 418 481 38,700 1,141 Climbing Jacksonville Center
Thu 07:58:12 AM 28.2625 -80.9389 342° North 418 481 39,900 1,150 Climbing Jacksonville Center
Thu 07:59:12 AM 28.3672 -80.9817 340° North 405 466 41,000 550 Climbing Jacksonville Center
Thu 08:00:12 AM 28.4786 -81.0292 339° North 405 466 41,000  Level Jacksonville Center
Thu 08:01:12 AM 28.5942 -81.0744 341° North 411 473 41,000  Level Jacksonville Center
Thu 08:02:12 AM 28.7053 -81.1172 341° North 411 473 41,000  Level Jacksonville Center
Thu 08:03:12 AM 28.8225 -81.1342 353° North 411 473 41,000  Level Jacksonville Center
Thu 08:04:12 AM 28.9414 -81.1369 359° North 416 479 41,000  Level Jacksonville Center
Thu 08:05:12 AM 29.0603 -81.1394 359° North 421 484 41,000  Level Jacksonville Center
Thu 08:06:12 AM 29.1772 -81.1397 360° North 421 484 41,000  Level Jacksonville Center
Thu 08:07:12 AM 29.2964 -81.1425 359° North 421 484 41,000  Level Jacksonville Center
Thu 08:08:12 AM 29.4153 -81.1428 360° North 421 484 41,000  Level Jacksonville Center
Thu 08:09:12 AM 29.5197 -81.1408 North 421 484 41,000  Level Jacksonville Center
Thu 08:10:12 AM 29.6511 -81.1433 359° North 421 484 41,000  Level Jacksonville Center
Thu 08:11:12 AM 29.7703 -81.1458 359° North 430 495 41,000  Level Jacksonville Center
Thu 08:12:12 AM 29.8892 -81.1486 359° North 430 495 41,000  Level Jacksonville Center
Thu 08:13:12 AM 30.0083 -81.1489 360° North 425 489 41,000  Level Jacksonville Center
Thu 08:14:12 AM 30.1272 -81.1514 359° North 425 489 41,000  Level Jacksonville Center
Thu 08:15:12 AM 30.2464 -81.1542 359° North 417 480 41,000  Level Jacksonville Center
Thu 08:16:12 AM 30.3675 -81.1567 359° North 422 486 41,000  Level Jacksonville Center
Thu 08:17:12 AM 30.4844 -81.1569 360° North 422 486 41,000  Level Jacksonville Center
Thu 08:18:12 AM 30.6056 -81.1547 North 422 486 41,000  Level Jacksonville Center
Thu 08:19:12 AM 30.7267 -81.1600 358° North 422 486 41,000  Level Jacksonville Center
Thu 08:20:12 AM 30.8436 -81.1625 359° North 422 486 41,000  Level Jacksonville Center
Thu 08:21:12 AM 30.9625 -81.1628 360° North 417 480 41,000  Level Jacksonville Center
Thu 08:22:12 AM 31.0586 -81.1658 358° North 422 486 41,000  Level Jacksonville Center
Thu 08:23:12 AM 31.2050 -81.1706 358° North 428 493 41,000  Level Jacksonville Center
Thu 08:24:12 AM 31.3217 -81.1683 North 423 487 41,000  Level Jacksonville Center
Thu 08:25:12 AM 31.4253 -81.1031 28° Northeast 418 481 41,000  Level Jacksonville Center
Thu 08:26:12 AM 31.5203 -81.0378 30° Northeast 418 481 41,000  Level Jacksonville Center
Thu 08:27:12 AM 31.6361 -80.9550 31° Northeast 425 489 41,000  Level Jacksonville Center
Thu 08:28:12 AM 31.7394 -80.8844 30° Northeast 427 491 41,000  Level Jacksonville Center
Thu 08:29:12 AM 31.8425 -80.8114 31° Northeast 427 491 41,000  Level Jacksonville Center
Thu 08:30:12 AM 31.9458 -80.7381 31° Northeast 427 491 41,000  Level Jacksonville Center
Thu 08:31:12 AM 32.0383 -80.6697 32° Northeast 432 497 41,000  Level Jacksonville Center
Thu 08:32:12 AM 32.1539 -80.5908 30° Northeast 432 497 41,000  Level Jacksonville Center
Thu 08:33:12 AM 32.2425 -80.5247 32° Northeast 420 483 41,000  Level Jacksonville Center
Thu 08:34:12 AM 32.3475 -80.4508 31° Northeast 427 491 41,000  Level Jacksonville Center
Thu 08:35:12 AM 32.4486 -80.3792 31° Northeast 427 491 41,000  Level Jacksonville Center
Thu 08:36:12 AM 32.5492 -80.3047 32° Northeast 427 491 41,000  Level Jacksonville Center
Thu 08:37:12 AM 32.6458 -80.2331 32° Northeast 422 486 41,000  Level Jacksonville Center
Thu 08:38:12 AM 32.7444 -80.1608 32° Northeast 422 486 41,000  Level Jacksonville Center
Thu 08:39:12 AM 32.8472 -80.0861 31° Northeast 422 486 41,000  Level Jacksonville Center
Thu 08:40:12 AM 32.9581 -80.0008 33° Northeast 427 491 41,000  Level Jacksonville Center
Thu 08:41:12 AM 33.0586 -79.9233 33° Northeast 427 491 41,000  Level Jacksonville Center
Thu 08:42:12 AM 33.1569 -79.8531 31° Northeast 420 483 41,000  Level Jacksonville Center
Thu 08:43:12 AM 33.2553 -79.7778 33° Northeast 420 483 41,000  Level Jacksonville Center
Thu 08:44:12 AM 33.3536 -79.6997 34° Northeast 420 483 41,000  Level Jacksonville Center
Thu 08:45:12 AM 33.4497 -79.6267 32° Northeast 420 483 41,000  Level Jacksonville Center
Thu 08:46:12 AM 33.5481 -79.5483 34° Northeast 420 483 41,000  Level Jacksonville Center
Thu 08:47:12 AM 33.6461 -79.4722 33° Northeast 420 483 41,000  Level Jacksonville Center
Thu 08:48:12 AM 33.7278 -79.4064 34° Northeast 415 478 41,000  Level Jacksonville Center
Thu 08:49:12 AM 33.8300 -79.3300 32° Northeast 405 466 41,000  Level Jacksonville Center
Thu 08:50:12 AM 33.9339 -79.2456 34° Northeast 410 472 41,000  Level Jacksonville Center
Thu 08:51:12 AM 34.0339 -79.1714 32° Northeast 410 472 41,000  Level Jacksonville Center
Thu 08:52:49 AM 34.1867 -79.0489 34° Northeast 404 465 41,000  Level Washington Center
Thu 08:53:47 AM 34.2847 -78.9725 33° Northeast 404 465 41,000  Level Washington Center
Thu 08:54:47 AM 34.3850 -78.8911 34° Northeast 415 478 41,000  Level Washington Center
Thu 08:55:49 AM 34.4831 -78.8119 34° Northeast 420 483 41,000  Level Washington Center
Thu 08:56:50 AM 34.5836 -78.7275 35° Northeast 425 489 41,000  Level Washington Center
Thu 08:57:47 AM 34.6753 -78.6528 34° Northeast 436 502 41,000  Level Washington Center
Thu 08:58:48 AM 34.7881 -78.5608 34° Northeast 436 502 41,000  Level Washington Center
Thu 08:59:48 AM 34.8881 -78.4811 33° Northeast 436 502 41,000  Level Washington Center
Thu 09:00:47 AM 34.9881 -78.3958 35° Northeast 436 502 41,000  Level Washington Center
Thu 09:01:47 AM 35.0903 -78.3131 34° Northeast 436 502 41,000  Level Washington Center
Thu 09:02:49 AM 35.1944 -78.2278 34° Northeast 436 502 41,000  Level Washington Center
Thu 09:03:49 AM 35.2900 -78.1494 34° Northeast 442 509 41,000  Level Washington Center
Thu 09:04:47 AM 35.3919 -78.0661 34° Northeast 442 509 41,000  Level Washington Center
Thu 09:05:48 AM 35.4958 -77.9775 35° Northeast 449 517 41,000  Level Washington Center
Thu 09:06:48 AM 35.5997 -77.8961 32° Northeast 449 517 41,000  Level Washington Center
Thu 09:07:49 AM 35.7014 -77.8122 34° Northeast 444 511 41,000  Level Washington Center
Thu 09:08:48 AM 35.8075 -77.7228 34° Northeast 444 511 41,000  Level Washington Center
Thu 09:09:48 AM 35.9092 -77.6386 34° Northeast 444 511 41,000  Level Washington Center
Thu 09:10:49 AM 36.0106 -77.5511 35° Northeast 444 511 41,000  Level Washington Center
Thu 09:11:47 AM 36.1142 -77.4664 33° Northeast 444 511 41,000  Level Washington Center
Thu 09:12:48 AM 36.2158 -77.3786 35° Northeast 439 505 41,000  Level Washington Center
Thu 09:13:49 AM 36.3192 -77.2933 34° Northeast 439 505 41,000  Level Washington Center
Thu 09:14:48 AM 36.4206 -77.2028 36° Northeast 444 511 41,000  Level Washington Center
Thu 09:15:48 AM 36.5242 -77.1144 34° Northeast 444 511 41,000  Level Washington Center
Thu 09:16:49 AM 36.6272 -77.0258 35° Northeast 444 511 41,000  Level Washington Center
Thu 09:17:50 AM 36.7306 -76.9369 35° Northeast 444 511 41,000  Level Washington Center
Thu 09:18:48 AM 36.8358 -76.8481 34° Northeast 449 517 41,000  Level Washington Center
Thu 09:19:49 AM 36.9389 -76.7586 35° Northeast 449 517 41,000  Level Washington Center
Thu 09:20:46 AM 37.0231 -76.6844 35° Northeast 449 517 41,000  Level Washington Center
Thu 09:21:47 AM 37.1578 -76.5639 35° Northeast 449 517 41,000  Level Washington Center
Thu 09:22:48 AM 37.2628 -76.4714 35° Northeast 449 517 41,000  Level Washington Center
Thu 09:23:49 AM 37.3675 -76.3836 34° Northeast 449 517 41,000  Level Washington Center
Thu 09:24:47 AM 37.4703 -76.2906 36° Northeast 449 517 41,000  Level Washington Center
Thu 09:25:47 AM 37.5753 -76.1997 34° Northeast 449 517 41,000  Level Washington Center
Thu 09:26:47 AM 37.6819 -76.1139 32° Northeast 449 517 41,000  Level Washington Center
Thu 09:27:48 AM 37.7825 -76.0147 38° Northeast 454 522 41,000  Level Washington Center
Thu 09:28:48 AM 37.8869 -75.9233 35° Northeast 454 522 41,000  Level Washington Center
Thu 09:29:49 AM 37.9914 -75.8261 36° Northeast 454 522 41,000  Level Washington Center
Thu 09:31:01 AM 38.0939 -75.7369 34° Northeast 454 522 41,000  Level Washington Center
Thu 09:32:00 AM 38.2086 -75.6314 36° Northeast 454 522 41,000  Level Washington Center
Thu 09:33:00 AM 38.3128 -75.5389 35° Northeast 459 528 41,000  Level Washington Center
Thu 09:34:01 AM 38.4294 -75.4778 22° Northeast 451 519 41,000  Level Washington Center
Thu 09:35:01 AM 38.5461 -75.4272 19° North 443 510 41,000  Level Washington Center
Thu 09:36:01 AM 38.6628 -75.3817 17° North 436 502 41,000  Level Washington Center
Thu 09:36:59 AM 38.7817 -75.3281 19° North 436 502 41,000  Level Washington Center
Thu 09:37:59 AM 38.8897 -75.2475 30° Northeast 447 514 41,000  Level Washington Center
Thu 09:39:00 AM 39.0000 -75.1589 32° Northeast 447 514 41,000  Level Washington Center
Thu 09:40:01 AM 39.1081 -75.0700 33° Northeast 459 528 41,000  Level Washington Center
Thu 09:41:01 AM 39.2283 -74.9753 31° Northeast 464 534 41,000  Level Washington Center
Thu 09:41:59 AM 39.3258 -74.8914 34° Northeast 459 528 41,000  Level Washington Center
Thu 09:42:59 AM 39.4461 -74.7933 32° Northeast 454 522 41,000 -675 Level Washington Center
Thu 09:44:39 AM 39.6164 -74.6461 34° Northeast 430 495 39,200 -1,050 Descending New York Center
Thu 09:45:39 AM 39.7128 -74.5650 33° Northeast 449 517 38,200 -1,333 Descending New York Center
Thu 09:46:36 AM 39.8158 -74.4733 34° Northeast 449 517 36,600 -1,627 Descending New York Center
Thu 09:47:37 AM 39.9314 -74.3767 33° Northeast 455 524 35,000 -780 Descending New York Center
Thu 09:48:39 AM 40.0319 -74.2897 33° Northeast 443 510 35,000  Level New York Center
Thu 09:49:38 AM 40.1219 -74.2019 37° Northeast 443 510 35,000  Level New York Center
Thu 09:50:38 AM 40.2186 -74.1061 37° Northeast 443 510 35,000  Level New York Center
Thu 09:51:38 AM 40.3131 -74.0047 39° Northeast 438 504 35,000 -800 Level New York Center
Thu 09:52:38 AM 40.4181 -73.8978 38° Northeast 438 504 33,400 -2,100 Descending New York Center
Thu 09:54:18 AM 40.5797 -73.7381 37° Northeast 432 497 29,400 -2,400 Descending Boston Center
Thu 09:55:18 AM 40.6725 -73.6414 38° Northeast 426 490 27,000 -2,100 Descending Boston Center
Thu 09:56:18 AM 40.7528 -73.5550 39° Northeast 420 483 25,200 -1,500 Descending Boston Center
Thu 09:57:18 AM 40.8453 -73.4608 38° Northeast 415 478 24,000 -600 Descending Boston Center
Thu 09:58:18 AM 40.9253 -73.3494 46° Northeast 415 478 24,000  Level Boston Center
Thu 09:59:18 AM 41.0014 -73.2350 49° Northeast 409 471 24,000 -500 Level Boston Center
Thu 10:00:18 AM 41.0794 -73.0900 54° Northeast 422 486 23,000 -500 Descending Boston Center
Thu 10:01:18 AM 41.1406 -72.9556 59° Northeast 422 486 23,000  Level Boston Center
Thu 10:02:18 AM 41.2056 -72.8208 57° Northeast 428 493 23,000  Level Boston Center
Thu 10:03:18 AM 41.2664 -72.6858 59° Northeast 433 498 23,000  Level Boston Center
Thu 10:04:18 AM 41.3228 -72.5561 60° Northeast 433 498 23,000  Level Boston Center
Thu 10:05:18 AM 41.3856 -72.4208 58° Northeast 428 493 23,000  Level Boston Center
Thu 10:06:18 AM 41.4519 -72.2739 59° Northeast 418 481 23,000 -650 Level Boston Center
Thu 10:07:18 AM 41.5081 -72.1353 62° Northeast 413 475 21,700 -1,750 Descending Boston Center
Thu 10:08:18 AM 41.5575 -71.9961 65° Northeast 413 475 19,500 -2,250 Descending Boston Center
Thu 10:09:18 AM 41.6006 -71.8517 68° East 419 482 17,200 -2,150 Descending Boston Center
Thu 10:10:18 AM 41.6417 -71.7150 68° East 413 475 15,200 -2,050 Descending Boston Center
Thu 10:11:18 AM 41.6822 -71.5811 68° East 393 452 13,100 -1,900 Descending Boston Center
Thu 10:12:18 AM 41.7128 -71.4694 70° East 364 419 11,400 -955 Descending Boston Center
Thu 10:13:30 AM 41.7597 -71.3603 60° Northeast 317 365 11,000 -182 Descending Boston Center
Thu 10:14:30 AM 41.8108 -71.2731 52° Northeast 258 297 11,000 -350 Level Boston Center
Thu 10:15:30 AM 41.8689 -71.2442 20° North 236 272 10,300 -1,200 Descending Boston Center
Thu 10:16:30 AM 41.9394 -71.2094 20° North 236 272 8,600 -1,600 Descending Boston Center
Thu 10:17:30 AM 41.9933 -71.1831 20° North 241 277 7,100 -1,600 Descending Boston Center
Thu 10:18:30 AM 42.0597 -71.1539 18° North 235 270 5,400 -1,537 Descending Boston Center
Thu 10:19:31 AM 42.1136 -71.1247 22° Northeast 230 265 4,000 -850 Descending Boston Center
Thu 10:20:30 AM 42.1736 -71.0983 18° North 206 237 3,700 -605 Descending Boston Center
Thu 10:21:30 AM 42.2192 -71.0747 21° North 201 231 2,800 -950 Descending Boston Center
Thu 10:22:30 AM 42.2689 -71.0514 19° North 181 208 1,800 -876 Descending Boston Center
Thu 10:23:47 AM 42.3167 -71.0333 16° North 130 150 800 -701 Descending KA90
Thu 10:24:47 AM 42.3500 -71.0167 20° North 113 130 200 -600 Descending KA90
Thu 10:27:00 AM 42.3500 -71.0000 North  Level FlightAware Approximate

Login

Don't have an account? Register now (free) for customized features, flight alerts, and more!